createdAt,value
2019-05-29T00:00:21.460Z,15.22
2019-05-29T00:02:35.705Z,15.21
2019-05-29T00:05:14.295Z,15.28
2019-05-29T00:10:22.656Z,15.31
2019-05-29T00:12:56.844Z,15.29
2019-05-29T00:15:44.711Z,15.29
2019-05-29T00:18:22.404Z,15.21
2019-05-29T00:23:58.664Z,15.07
2019-05-29T00:26:41.199Z,15.00
2019-05-29T00:29:28.802Z,14.96
2019-05-29T00:31:50.349Z,14.91
2019-05-29T00:37:20.671Z,14.89
2019-05-29T00:39:41.905Z,14.86
2019-05-29T00:42:15.880Z,14.83
2019-05-29T00:45:02.747Z,14.80
2019-05-29T00:47:21.174Z,14.80
2019-05-29T00:49:57.543Z,14.79
2019-05-29T00:52:31.249Z,14.76
2019-05-29T00:55:12.633Z,14.73
2019-05-29T00:57:33.024Z,14.69
2019-05-29T01:05:22.327Z,14.53
2019-05-29T01:08:00.948Z,14.48
2019-05-29T01:10:51.725Z,14.43
2019-05-29T01:13:52.089Z,14.41
2019-05-29T01:16:15.646Z,14.40
2019-05-29T01:18:34.298Z,14.41
2019-05-29T01:21:12.379Z,14.45
2019-05-29T01:24:04.135Z,14.49
2019-05-29T01:26:47.361Z,14.55
2019-05-29T01:29:31.102Z,14.59
2019-05-29T01:32:15.566Z,14.63
2019-05-29T01:37:27.060Z,14.72
2019-05-29T01:40:18.784Z,14.78
2019-05-29T01:42:44.608Z,14.78
2019-05-29T01:45:09.098Z,14.73
2019-05-29T01:47:49.866Z,14.58
2019-05-29T01:50:32.121Z,14.55
2019-05-29T01:53:13.767Z,14.36
2019-05-29T01:56:03.243Z,14.24
2019-05-29T02:01:11.051Z,14.44
2019-05-29T02:03:47.196Z,14.56
2019-05-29T02:06:39.556Z,14.62
2019-05-29T02:09:18.175Z,14.72
2019-05-29T02:11:44.607Z,14.78
2019-05-29T02:14:32.474Z,14.83
2019-05-29T02:17:03.793Z,14.84
2019-05-29T02:19:50.912Z,14.84
2019-05-29T02:22:13.145Z,14.86
2019-05-29T02:24:47.977Z,14.89
2019-05-29T02:27:29.470Z,14.90
2019-05-29T02:30:01.021Z,14.94
2019-05-29T02:32:25.605Z,14.97
2019-05-29T02:37:47.763Z,15.02
2019-05-29T02:40:06.826Z,15.06
2019-05-29T02:42:47.361Z,15.07
2019-05-29T02:45:07.680Z,15.06
2019-05-29T02:47:47.013Z,15.06
2019-05-29T02:50:26.144Z,15.02
2019-05-29T02:56:02.833Z,15.02
2019-05-29T02:58:27.752Z,15.04
2019-05-29T03:01:23.563Z,15.06
2019-05-29T03:03:57.857Z,15.10
2019-05-29T03:06:49.095Z,15.15
2019-05-29T03:09:10.714Z,15.18
2019-05-29T03:11:46.685Z,15.24
2019-05-29T03:14:14.745Z,15.24
2019-05-29T03:16:59.952Z,15.29
2019-05-29T03:19:36.490Z,15.34
2019-05-29T03:22:20.742Z,15.36
2019-05-29T03:24:34.941Z,15.37
2019-05-29T03:30:17.840Z,15.40
2019-05-29T03:33:02.703Z,15.40
2019-05-29T03:35:48.841Z,15.41
2019-05-29T03:38:15.737Z,15.41
2019-05-29T03:40:33.583Z,15.50
2019-05-29T03:46:26.402Z,15.63
2019-05-29T03:49:00.251Z,15.68
2019-05-29T03:51:38.911Z,15.74
2019-05-29T03:54:01.306Z,15.64
2019-05-29T03:56:39.520Z,15.53
2019-05-29T03:59:05.438Z,15.29
2019-05-29T04:01:44.954Z,15.42
2019-05-29T04:04:04.551Z,15.44
2019-05-29T04:06:47.049Z,15.32
2019-05-29T04:09:08.170Z,15.38
2019-05-29T04:11:43.924Z,15.27
2019-05-29T04:17:13.660Z,15.19
2019-05-29T04:19:36.919Z,15.38
2019-05-29T04:21:56.794Z,15.37
2019-05-29T04:24:11.657Z,15.44
2019-05-29T04:26:44.237Z,15.33
2019-05-29T04:29:38.216Z,15.17
2019-05-29T04:32:17.014Z,14.87
2019-05-29T04:34:33.785Z,14.74
2019-05-29T04:36:50.857Z,14.76
2019-05-29T04:41:59.613Z,14.63
2019-05-29T04:44:19.073Z,14.41
2019-05-29T04:47:11.153Z,14.27
2019-05-29T04:49:51.669Z,14.31
2019-05-29T04:52:44.008Z,14.16
2019-05-29T04:55:31.306Z,14.16
2019-05-29T04:58:19.247Z,14.07
2019-05-29T05:01:00.553Z,13.99
2019-05-29T05:03:24.938Z,14.20
2019-05-29T05:05:43.691Z,14.16
2019-05-29T05:08:03.674Z,14.10
2019-05-29T05:10:40.789Z,14.01
2019-05-29T05:13:24.496Z,13.72
2019-05-29T05:19:03.453Z,13.81
2019-05-29T05:21:54.763Z,13.53
2019-05-29T05:24:36.288Z,13.52
2019-05-29T05:27:00.121Z,13.65
2019-05-29T05:29:38.497Z,13.50
2019-05-29T05:32:25.832Z,13.69
2019-05-29T05:34:53.322Z,13.56
2019-05-29T05:37:34.683Z,13.64
2019-05-29T05:40:19.055Z,13.41
2019-05-29T05:42:57.340Z,13.44
2019-05-29T05:45:17.350Z,13.59
2019-05-29T05:47:52.988Z,13.40
2019-05-29T05:50:13.397Z,13.55
2019-05-29T05:52:42.797Z,13.64
2019-05-29T05:57:50.204Z,13.47
2019-05-29T06:00:23.399Z,13.57
2019-05-29T06:05:42.204Z,13.39
2019-05-29T06:11:01.766Z,13.10
2019-05-29T06:13:21.234Z,13.27
2019-05-29T06:16:04.466Z,12.89
2019-05-29T06:18:56.351Z,12.62
2019-05-29T06:21:20.883Z,12.78
2019-05-29T06:23:36.967Z,12.51
2019-05-29T06:25:51.425Z,12.68
2019-05-29T06:28:13.868Z,12.48
2019-05-29T06:30:39.353Z,12.57
2019-05-29T06:33:20.047Z,12.36
2019-05-29T06:35:43.786Z,12.34
2019-05-29T06:38:19.272Z,12.19
2019-05-29T06:40:53.992Z,12.38
2019-05-29T06:43:17.047Z,12.34
2019-05-29T06:45:51.877Z,12.31
2019-05-29T06:48:42.554Z,12.29
2019-05-29T06:50:58.065Z,12.26
2019-05-29T06:53:37.821Z,12.36
2019-05-29T06:56:10.716Z,12.30
2019-05-29T06:59:01.232Z,12.58
2019-05-29T07:01:47.651Z,12.53
2019-05-29T07:04:33.581Z,12.56
2019-05-29T07:07:11.381Z,12.68
2019-05-29T07:10:05.875Z,12.54
2019-05-29T07:12:48.189Z,12.56
2019-05-29T07:15:36.149Z,12.65
2019-05-29T07:18:12.687Z,12.52
2019-05-29T07:21:01.954Z,12.72
2019-05-29T07:23:45.139Z,12.71
2019-05-29T07:26:09.167Z,12.25
2019-05-29T07:31:34.795Z,12.15
2019-05-29T07:37:02.072Z,12.14
2019-05-29T07:39:48.441Z,12.09
2019-05-29T07:42:25.769Z,12.11
2019-05-29T07:45:01.075Z,11.95
2019-05-29T07:47:22.722Z,12.20
2019-05-29T07:52:53.580Z,12.08
2019-05-29T07:55:49.820Z,12.20
2019-05-29T07:58:15.328Z,12.14
2019-05-29T08:01:09.624Z,11.98
2019-05-29T08:03:14.540Z,12.07
2019-05-29T08:05:41.097Z,12.10
2019-05-29T08:08:19.697Z,11.97
2019-05-29T08:10:59.034Z,12.14
2019-05-29T08:13:43.349Z,12.19
2019-05-29T08:16:03.589Z,12.14
2019-05-29T08:18:45.615Z,12.06
2019-05-29T08:21:07.298Z,12.07
2019-05-29T08:23:56.331Z,12.10
2019-05-29T08:26:23.861Z,12.12
2019-05-29T08:28:42.673Z,12.00
2019-05-29T08:34:11.689Z,11.94
2019-05-29T08:37:06.594Z,12.01
2019-05-29T08:39:49.568Z,11.85
2019-05-29T08:42:23.793Z,11.68
2019-05-29T08:45:03.063Z,11.54
2019-05-29T08:47:37.383Z,11.68
2019-05-29T08:49:54.646Z,11.78
2019-05-29T08:54:58.115Z,11.89
2019-05-29T08:57:38.579Z,12.06
2019-05-29T09:02:51.233Z,11.95
2019-05-29T09:05:25.529Z,12.36
2019-05-29T09:10:57.514Z,12.61
2019-05-29T09:13:24.357Z,12.64
2019-05-29T09:16:09.434Z,12.87
2019-05-29T09:18:32.378Z,13.25
2019-05-29T09:26:33.127Z,13.04
2019-05-29T09:28:54.283Z,13.34
2019-05-29T09:34:25.152Z,13.23
2019-05-29T09:37:20.490Z,13.11
2019-05-29T09:40:06.423Z,12.96
2019-05-29T09:42:53.646Z,12.78
2019-05-29T09:45:32.984Z,12.86
2019-05-29T09:50:51.965Z,12.75
2019-05-29T09:53:06.208Z,13.20
2019-05-29T09:55:20.661Z,13.18
2019-05-29T09:57:36.342Z,12.76
2019-05-29T10:00:14.757Z,12.90
2019-05-29T10:03:03.770Z,12.70
2019-05-29T10:05:44.868Z,12.75
2019-05-29T10:08:40.107Z,12.98
2019-05-29T10:11:08.687Z,12.96
2019-05-29T10:13:40.449Z,13.07
2019-05-29T10:16:04.684Z,13.21
2019-05-29T10:18:39.973Z,13.32
2019-05-29T10:21:10.917Z,12.97
2019-05-29T10:23:46.639Z,13.17
2019-05-29T10:26:27.742Z,13.11
2019-05-29T10:29:10.467Z,13.52
2019-05-29T10:31:58.913Z,13.66
2019-05-29T10:34:33.304Z,13.03
2019-05-29T10:36:59.659Z,13.10
2019-05-29T10:39:34.359Z,12.80
2019-05-29T10:41:54.380Z,12.89
2019-05-29T10:47:25.928Z,12.73
2019-05-29T10:50:04.576Z,12.85
2019-05-29T10:52:25.980Z,12.82
2019-05-29T10:54:58.664Z,12.73
2019-05-29T11:00:37.973Z,12.68
2019-05-29T11:02:59.026Z,12.80
2019-05-29T11:08:15.649Z,12.44
2019-05-29T11:10:36.348Z,12.32
2019-05-29T11:16:07.326Z,12.51
2019-05-29T11:19:01.401Z,12.46
2019-05-29T11:21:34.584Z,12.42
2019-05-29T11:27:06.569Z,12.37
2019-05-29T11:32:23.706Z,12.88
2019-05-29T11:34:59.645Z,12.87
2019-05-29T11:37:39.904Z,12.99
2019-05-29T11:40:25.504Z,13.01
2019-05-29T11:43:09.934Z,12.78
2019-05-29T11:46:01.903Z,12.73
2019-05-29T11:48:40.748Z,12.61
2019-05-29T11:51:19.032Z,12.73
2019-05-29T11:54:02.444Z,13.02
2019-05-29T11:56:31.472Z,12.97
2019-05-29T11:59:08.844Z,13.03
2019-05-29T12:01:50.092Z,12.96
2019-05-29T12:04:26.647Z,12.93
2019-05-29T12:07:09.722Z,12.81
2019-05-29T12:09:51.399Z,12.91
2019-05-29T12:15:18.994Z,12.38
2019-05-29T12:20:49.033Z,12.47
2019-05-29T12:23:39.997Z,12.41
2019-05-29T12:26:26.346Z,12.54
2019-05-29T12:29:12.551Z,12.40
2019-05-29T12:31:57.100Z,12.34
2019-05-29T12:37:27.239Z,12.41
2019-05-29T12:40:03.766Z,12.35
2019-05-29T12:45:18.900Z,12.64
2019-05-29T12:50:22.724Z,12.42
2019-05-29T12:52:59.692Z,12.11
2019-05-29T12:55:49.269Z,12.10
2019-05-29T13:00:49.319Z,12.01
2019-05-29T13:03:03.111Z,12.17
2019-05-29T13:05:20.732Z,12.22
2019-05-29T13:07:38.307Z,11.99
2019-05-29T13:10:00.983Z,11.81
2019-05-29T13:12:22.265Z,12.09
2019-05-29T13:14:41.635Z,12.15
2019-05-29T13:16:58.845Z,12.32
2019-05-29T13:19:13.818Z,12.53
2019-05-29T13:21:25.919Z,12.61
2019-05-29T13:23:46.817Z,12.52
2019-05-29T13:26:03.736Z,12.68
2019-05-29T13:28:20.543Z,12.70
2019-05-29T13:30:36.970Z,12.60
2019-05-29T13:33:13.172Z,12.74
2019-05-29T13:35:51.018Z,12.51
2019-05-29T13:38:07.387Z,12.40
2019-05-29T13:40:41.684Z,12.41
2019-05-29T13:43:11.462Z,12.11
2019-05-29T13:45:24.854Z,12.18
2019-05-29T13:47:39.825Z,12.44
2019-05-29T13:50:12.041Z,12.35
2019-05-29T13:52:23.264Z,12.25
2019-05-29T13:54:37.822Z,12.55
2019-05-29T13:56:52.202Z,12.56
2019-05-29T14:02:06.302Z,12.73
2019-05-29T14:04:28.892Z,12.56
2019-05-29T14:06:41.805Z,12.68
2019-05-29T14:08:53.803Z,12.69
2019-05-29T14:11:09.381Z,12.61
2019-05-29T14:13:40.618Z,12.84
2019-05-29T14:15:52.510Z,12.90
2019-05-29T14:18:17.824Z,13.19
2019-05-29T14:20:36.061Z,12.91
2019-05-29T14:23:28.817Z,13.07
2019-05-29T14:25:46.957Z,13.03
2019-05-29T14:28:14.512Z,12.83
2019-05-29T14:30:40.839Z,12.99
2019-05-29T14:32:54.373Z,13.06
2019-05-29T14:35:11.245Z,13.06
2019-05-29T14:37:30.137Z,12.96
2019-05-29T14:39:51.561Z,12.92
2019-05-29T14:42:08.241Z,12.71
2019-05-29T14:44:28.657Z,13.00
2019-05-29T14:47:03.752Z,12.93
2019-05-29T14:49:26.548Z,13.03
2019-05-29T14:51:42.116Z,12.93
2019-05-29T14:54:06.730Z,13.20
2019-05-29T14:57:00.005Z,13.11
2019-05-29T14:59:20.742Z,13.19
2019-05-29T15:01:38.295Z,13.40
2019-05-29T15:03:53.977Z,13.43
2019-05-29T15:06:41.202Z,13.11
2019-05-29T15:09:19.410Z,13.33
2019-05-29T15:11:46.558Z,13.57
2019-05-29T15:14:01.628Z,13.62
2019-05-29T15:16:26.836Z,13.36
2019-05-29T15:21:43.455Z,13.81
2019-05-29T15:23:55.040Z,13.59
2019-05-29T15:26:13.896Z,13.50
2019-05-29T15:28:26.721Z,13.53
2019-05-29T15:31:19.668Z,13.83
2019-05-29T15:34:00.847Z,13.76
2019-05-29T15:36:36.502Z,13.68
2019-05-29T15:38:53.107Z,13.56
2019-05-29T15:41:30.081Z,13.78
2019-05-29T15:44:02.044Z,13.68
2019-05-29T15:46:53.668Z,13.67
2019-05-29T15:49:26.349Z,13.56
2019-05-29T15:51:48.799Z,13.68
2019-05-29T15:54:05.498Z,13.70
2019-05-29T15:56:41.041Z,13.73
2019-05-29T15:58:57.850Z,14.00
2019-05-29T16:01:15.747Z,14.23
2019-05-29T16:03:28.906Z,14.23
2019-05-29T16:05:45.617Z,14.19
2019-05-29T16:08:02.065Z,14.04
2019-05-29T16:10:23.015Z,14.16
2019-05-29T16:12:37.574Z,14.05
2019-05-29T16:15:11.242Z,14.02
2019-05-29T16:17:47.541Z,14.13
2019-05-29T16:20:30.565Z,14.22
2019-05-29T16:22:54.074Z,13.77
2019-05-29T16:25:16.821Z,14.28
2019-05-29T16:27:54.033Z,14.37
2019-05-29T16:30:25.922Z,14.22
2019-05-29T16:32:59.118Z,14.22
2019-05-29T16:35:40.911Z,14.10
2019-05-29T16:38:27.003Z,14.32
2019-05-29T16:41:00.299Z,14.30
2019-05-29T16:43:26.732Z,14.51
2019-05-29T16:45:47.737Z,14.41
2019-05-29T16:51:13.139Z,14.36
2019-05-29T16:53:33.765Z,14.19
2019-05-29T16:55:53.730Z,14.15
2019-05-29T16:58:36.466Z,13.94
2019-05-29T17:00:56.857Z,13.95
2019-05-29T17:03:25.957Z,13.93
2019-05-29T17:05:44.502Z,14.07
2019-05-29T17:07:57.629Z,14.25
2019-05-29T17:10:12.485Z,14.27
2019-05-29T17:12:42.609Z,14.21
2019-05-29T17:14:55.834Z,14.08
2019-05-29T17:17:12.132Z,14.12
2019-05-29T17:19:27.811Z,14.35
2019-05-29T17:21:42.163Z,14.37
2019-05-29T17:23:56.434Z,14.09
2019-05-29T17:26:11.986Z,14.00
2019-05-29T17:28:56.239Z,14.33
2019-05-29T17:31:09.364Z,14.47
2019-05-29T17:33:23.202Z,14.47
2019-05-29T17:35:37.547Z,14.57
2019-05-29T17:37:52.410Z,14.59
2019-05-29T17:40:27.145Z,14.56
2019-05-29T17:42:39.746Z,14.55
2019-05-29T17:44:48.976Z,14.55
2019-05-29T17:47:00.386Z,14.58
2019-05-29T17:49:22.592Z,14.65
2019-05-29T17:51:44.724Z,14.63
2019-05-29T17:53:57.235Z,14.50
2019-05-29T17:56:26.385Z,14.36
2019-05-29T17:58:31.974Z,14.37
2019-05-29T18:00:46.530Z,14.49
2019-05-29T18:03:06.410Z,14.51
2019-05-29T18:05:45.512Z,14.54
2019-05-29T18:08:04.499Z,14.53
2019-05-29T18:16:27.793Z,14.36
2019-05-29T18:18:51.163Z,14.46
2019-05-29T18:21:28.758Z,14.26
2019-05-29T18:23:42.908Z,14.30
2019-05-29T18:25:57.972Z,14.36
2019-05-29T18:28:13.356Z,14.34
2019-05-29T18:30:43.062Z,14.52
2019-05-29T18:33:27.307Z,14.31
2019-05-29T18:35:50.976Z,14.32
2019-05-29T18:38:06.251Z,14.31
2019-05-29T18:40:40.587Z,14.39
2019-05-29T18:43:11.509Z,14.32
2019-05-29T18:45:27.962Z,14.34
2019-05-29T18:51:10.236Z,14.10
2019-05-29T18:53:37.280Z,14.04
2019-05-29T18:56:13.032Z,14.04
2019-05-29T18:58:54.008Z,14.01
2019-05-29T19:01:08.664Z,14.15
2019-05-29T19:03:25.390Z,14.36
2019-05-29T19:05:40.231Z,14.33
2019-05-29T19:07:57.346Z,14.31
2019-05-29T19:10:34.738Z,14.30
2019-05-29T19:13:15.072Z,14.47
2019-05-29T19:16:02.836Z,14.50
2019-05-29T19:18:15.954Z,14.32
2019-05-29T19:20:36.037Z,14.45
2019-05-29T19:23:09.334Z,14.36
2019-05-29T19:25:39.658Z,14.26
2019-05-29T19:27:53.597Z,14.07
2019-05-29T19:30:15.015Z,14.09
2019-05-29T19:32:57.423Z,14.08
2019-05-29T19:35:35.225Z,14.14
2019-05-29T19:37:49.069Z,14.05
2019-05-29T19:40:05.871Z,13.96
2019-05-29T19:42:35.581Z,13.99
2019-05-29T19:45:18.324Z,13.92
2019-05-29T19:47:46.879Z,14.01
2019-05-29T19:50:03.084Z,13.77
2019-05-29T19:52:13.634Z,13.74
2019-05-29T19:54:27.455Z,13.66
2019-05-29T19:56:51.040Z,13.52
2019-05-29T19:59:05.388Z,13.49
2019-05-29T20:01:30.707Z,13.58
2019-05-29T20:03:52.421Z,13.70
2019-05-29T20:06:35.357Z,13.71
2019-05-29T20:09:03.004Z,13.68
2019-05-29T20:11:19.811Z,13.79
2019-05-29T20:14:02.327Z,13.61
2019-05-29T20:16:19.031Z,13.54
2019-05-29T20:18:40.247Z,13.55
2019-05-29T20:20:55.818Z,13.57
2019-05-29T20:23:12.522Z,13.58
2019-05-29T20:25:53.673Z,13.51
2019-05-29T20:28:36.371Z,13.48
2019-05-29T20:31:04.695Z,13.67
2019-05-29T20:33:36.674Z,13.56
2019-05-29T20:36:00.635Z,13.51
2019-05-29T20:38:14.268Z,13.49
2019-05-29T20:40:30.957Z,13.56
2019-05-29T20:42:53.517Z,13.49
2019-05-29T20:45:08.688Z,13.45
2019-05-29T20:47:26.927Z,13.55
2019-05-29T20:49:55.619Z,13.36
2019-05-29T20:52:41.440Z,13.59
2019-05-29T20:54:58.664Z,13.53
2019-05-29T20:57:17.065Z,13.49
2019-05-29T21:00:05.622Z,13.41
2019-05-29T21:02:27.955Z,13.29
2019-05-29T21:05:12.514Z,13.35
2019-05-29T21:07:29.322Z,13.40
2019-05-29T21:10:02.414Z,13.28
2019-05-29T21:12:48.714Z,13.47
2019-05-29T21:15:13.612Z,13.34
2019-05-29T21:17:49.977Z,13.38
2019-05-29T21:20:44.563Z,13.15
2019-05-29T21:23:21.142Z,13.16
2019-05-29T21:26:04.371Z,13.22
2019-05-29T21:28:50.084Z,13.27
2019-05-29T21:31:25.091Z,13.28
2019-05-29T21:33:50.499Z,13.38
2019-05-29T21:36:38.049Z,13.22
2019-05-29T21:39:22.616Z,13.21
2019-05-29T21:42:11.416Z,13.34
2019-05-29T21:44:48.601Z,13.43
2019-05-29T21:47:36.902Z,13.32
2019-05-29T21:50:07.815Z,13.27
2019-05-29T21:52:34.149Z,13.18
2019-05-29T21:55:04.884Z,13.20
2019-05-29T21:57:24.667Z,13.26
2019-05-29T22:00:04.273Z,13.46
2019-05-29T22:02:44.340Z,13.30
2019-05-29T22:08:08.561Z,13.30
2019-05-29T22:10:51.285Z,13.35
2019-05-29T22:13:05.625Z,13.41
2019-05-29T22:15:43.189Z,13.49
2019-05-29T22:18:20.534Z,13.51
2019-05-29T22:20:46.636Z,13.45
2019-05-29T22:23:23.925Z,13.21
2019-05-29T22:26:08.175Z,13.35
2019-05-29T22:28:28.872Z,13.15
2019-05-29T22:30:53.295Z,13.23
2019-05-29T22:33:34.644Z,13.23
2019-05-29T22:36:22.686Z,13.01
2019-05-29T22:38:59.768Z,13.18
2019-05-29T22:41:33.522Z,13.18
2019-05-29T22:43:59.752Z,13.15
2019-05-29T22:46:31.766Z,12.99
2019-05-29T22:49:02.849Z,12.99
2019-05-29T22:51:25.042Z,13.07
2019-05-29T22:53:52.433Z,13.04
2019-05-29T22:56:22.723Z,13.10
2019-05-29T22:59:00.738Z,13.25
2019-05-29T23:01:20.403Z,12.97
2019-05-29T23:04:02.713Z,13.06
2019-05-29T23:06:58.239Z,13.02
2019-05-29T23:09:18.925Z,12.64
2019-05-29T23:11:46.383Z,12.95
2019-05-29T23:14:02.532Z,12.97
2019-05-29T23:16:23.616Z,12.73
2019-05-29T23:18:56.979Z,12.74
2019-05-29T23:21:11.021Z,12.61
2019-05-29T23:23:36.944Z,12.76
2019-05-29T23:26:08.398Z,12.57
2019-05-29T23:28:47.016Z,12.76
2019-05-29T23:31:09.147Z,12.80
2019-05-29T23:33:54.905Z,12.65
2019-05-29T23:36:30.082Z,12.74
2019-05-29T23:39:16.884Z,12.63
2019-05-29T23:42:01.478Z,12.66
2019-05-29T23:47:37.140Z,12.41
2019-05-29T23:50:04.776Z,12.65
2019-05-29T23:52:33.567Z,12.38
2019-05-29T23:54:50.889Z,12.14
2019-05-29T23:57:21.211Z,12.27
